Time,TemperatureF,DewpointF,PressureIn,WindDirection,WindDirectionDegrees,WindSpeedMPH,WindSpeedGustMPH,Humidity,HourlyPrecipIn,Conditions,Clouds,dailyrainin,SoftwareType,DateUTC
2013-07-21 00:01:00,72.3,68.2,29.88,NW,313,0.0,0.4,87,0.00,RA,,0.00,WeatherDisplay:10.37,2013-07-21 04:01:00,
2013-07-21 00:06:00,72.2,68.1,29.88,NW,313,2.3,2.3,87,0.00,CLR,,0.00,WeatherDisplay:10.37,2013-07-21 04:06:00,
2013-07-21 00:11:00,72.0,67.9,29.88,NW,313,0.0,0.0,87,0.00,CLR,,0.00,WeatherDisplay:10.37,2013-07-21 04:11:00,
2013-07-21 00:16:00,72.0,68.2,29.87,NW,313,0.0,0.0,88,0.00,CLR,,0.00,WeatherDisplay:10.37,2013-07-21 04:16:00,
2013-07-21 00:21:00,71.8,68.1,29.87,NW,313,0.0,0.0,88,0.00,CLR,,0.00,WeatherDisplay:10.37,2013-07-21 04:21:00,
2013-07-21 00:26:00,71.6,67.9,29.88,NW,313,0.0,0.0,88,0.00,CLR,,0.00,WeatherDisplay:10.37,2013-07-21 04:26:00,
2013-07-21 00:31:00,71.5,68.1,29.88,NW,313,0.0,0.0,89,0.00,CLR,,0.00,WeatherDisplay:10.37,2013-07-21 04:31:00,
2013-07-21 00:36:00,71.3,67.9,29.87,NW,313,0.0,0.0,89,0.00,CLR,,0.00,WeatherDisplay:10.37,2013-07-21 04:36:00,
2013-07-21 00:41:00,71.1,68.0,29.86,NW,313,2.3,2.3,90,0.00,CLR,,0.00,WeatherDisplay:10.37,2013-07-21 04:41:00,
2013-07-21 00:46:00,70.9,68.1,29.86,NW,313,1.2,0.0,91,0.00,CLR,,0.00,WeatherDisplay:10.37,2013-07-21 04:46:00,
2013-07-21 00:51:00,70.7,67.9,29.87,NW,313,1.2,1.2,91,0.00,CLR,,0.00,WeatherDisplay:10.37,2013-07-21 04:51:00,
2013-07-21 00:56:00,70.6,67.8,29.88,NW,313,2.0,2.0,91,0.00,CLR,,0.00,WeatherDisplay:10.37,2013-07-21 04:56:00,
2013-07-21 01:01:00,70.4,67.6,29.87,NW,313,0.0,0.0,91,0.00,CLR,,0.00,WeatherDisplay:10.37,2013-07-21 05:01:00,
2013-07-21 01:06:00,70.3,67.9,29.87,NW,313,0.0,0.0,92,0.00,CLR,,0.00,WeatherDisplay:10.37,2013-07-21 05:06:00,
2013-07-21 01:11:00,70.3,67.9,29.87,NW,313,1.2,1.2,92,0.00,CLR,,0.00,WeatherDisplay:10.37,2013-07-21 05:11:00,
2013-07-21 01:16:00,70.2,67.8,29.87,NW,313,0.0,0.0,92,0.00,CLR,,0.00,WeatherDisplay:10.37,2013-07-21 05:16:00,
2013-07-21 01:21:00,70.1,68.0,29.87,NW,313,0.0,0.0,93,0.00,CLR,,0.00,WeatherDisplay:10.37,2013-07-21 05:21:00,
2013-07-21 01:26:00,70.1,68.0,29.87,NW,313,0.0,0.0,93,0.00,CLR,,0.00,WeatherDisplay:10.37,2013-07-21 05:26:00,
2013-07-21 01:31:00,70.0,67.9,29.87,NW,313,0.0,0.0,93,0.00,CLR,,0.00,WeatherDisplay:10.37,2013-07-21 05:31:00,
2013-07-21 01:36:00,69.9,67.8,29.87,NW,313,2.3,0.0,93,0.00,CLR,,0.00,WeatherDisplay:10.37,2013-07-21 05:36:00,
2013-07-21 01:41:00,69.8,67.7,29.87,NW,313,0.0,0.1,93,0.00,CLR,,0.00,WeatherDisplay:10.37,2013-07-21 05:41:00,
2013-07-21 01:46:00,69.7,67.6,29.87,NW,313,0.0,0.0,93,0.00,CLR,,0.00,WeatherDisplay:10.37,2013-07-21 05:46:00,
2013-07-21 01:51:00,69.7,67.6,29.87,NW,313,0.0,0.0,93,0.00,CLR,,0.00,WeatherDisplay:10.37,2013-07-21 05:51:00,
2013-07-21 01:56:00,69.8,67.7,29.87,NW,313,0.0,0.0,93,0.00,CLR,,0.00,WeatherDisplay:10.37,2013-07-21 05:56:00,
2013-07-21 02:02:00,69.8,67.7,29.87,NW,313,0.0,0.0,93,0.00,CLR,,0.00,WeatherDisplay:10.37,2013-07-21 06:02:00,
2013-07-21 02:07:00,69.8,67.7,29.87,NW,313,0.0,0.0,93,0.00,CLR,,0.00,WeatherDisplay:10.37,2013-07-21 06:07:00,
2013-07-21 02:12:00,69.7,67.6,29.87,NW,313,0.0,0.5,93,0.00,CLR,,0.00,WeatherDisplay:10.37,2013-07-21 06:12:00,
2013-07-21 02:17:00,69.6,67.8,29.87,NW,313,0.0,0.0,94,0.00,CLR,,0.00,WeatherDisplay:10.37,2013-07-21 06:17:00,
2013-07-21 02:22:00,69.5,67.7,29.87,NW,313,0.0,0.0,94,0.00,CLR,,0.00,WeatherDisplay:10.37,2013-07-21 06:22:00,
2013-07-21 02:27:00,69.5,67.7,29.87,NW,313,2.3,2.3,94,0.00,CLR,,0.00,WeatherDisplay:10.37,2013-07-21 06:27:00,
2013-07-21 02:32:00,69.4,67.6,29.87,NW,313,2.3,2.3,94,0.00,CLR,,0.00,WeatherDisplay:10.37,2013-07-21 06:32:00,
2013-07-21 02:37:00,69.3,67.5,29.87,NW,313,1.2,0.0,94,0.00,CLR,,0.00,WeatherDisplay:10.37,2013-07-21 06:37:00,
2013-07-21 02:42:00,69.3,67.5,29.88,NW,313,0.0,0.0,94,0.00,CLR,,0.00,WeatherDisplay:10.37,2013-07-21 06:42:00,
2013-07-21 02:47:00,69.2,67.4,29.87,NW,313,0.0,0.0,94,0.00,CLR,,0.00,WeatherDisplay:10.37,2013-07-21 06:47:00,
2013-07-21 02:52:00,69.2,67.4,29.88,NW,313,1.2,1.2,94,0.00,CLR,,0.00,WeatherDisplay:10.37,2013-07-21 06:52:00,
2013-07-21 02:57:00,69.1,67.3,29.87,NW,313,0.0,0.0,94,0.00,CLR,,0.00,WeatherDisplay:10.37,2013-07-21 06:57:00,
2013-07-21 03:02:00,69.1,67.3,29.86,NW,313,0.0,0.0,94,0.00,CLR,,0.00,WeatherDisplay:10.37,2013-07-21 07:02:00,
2013-07-21 03:07:00,69.0,67.5,29.87,NW,313,0.0,0.0,95,0.00,CLR,,0.00,WeatherDisplay:10.37,2013-07-21 07:07:00,
2013-07-21 03:12:00,69.0,67.5,29.87,NW,313,1.2,1.2,95,0.00,CLR,,0.00,WeatherDisplay:10.37,2013-07-21 07:12:00,
2013-07-21 03:17:00,69.0,67.5,29.87,NW,313,0.0,0.0,95,0.00,CLR,,0.00,WeatherDisplay:10.37,2013-07-21 07:17:00,
2013-07-21 03:22:00,68.9,67.4,29.87,NW,313,0.0,0.0,95,0.00,CLR,,0.00,WeatherDisplay:10.37,2013-07-21 07:22:00,
2013-07-21 03:27:00,68.9,67.4,29.87,NW,313,0.0,0.0,95,0.00,CLR,,0.00,WeatherDisplay:10.37,2013-07-21 07:27:00,
2013-07-21 03:32:00,68.9,67.4,29.87,NW,313,2.3,2.3,95,0.00,CLR,,0.00,WeatherDisplay:10.37,2013-07-21 07:32:00,
2013-07-21 03:37:00,68.8,67.3,29.86,NW,313,2.3,2.3,95,0.00,CLR,,0.00,WeatherDisplay:10.37,2013-07-21 07:37:00,
2013-07-21 03:42:00,68.8,67.3,29.86,NW,313,2.3,2.3,95,0.00,CLR,,0.00,WeatherDisplay:10.37,2013-07-21 07:42:00,
2013-07-21 03:47:00,68.8,67.3,29.86,NW,313,0.0,0.0,95,0.00,CLR,,0.00,WeatherDisplay:10.37,2013-07-21 07:47:00,
2013-07-21 03:52:00,68.8,67.3,29.87,NW,313,3.5,3.5,95,0.00,CLR,,0.00,WeatherDisplay:10.37,2013-07-21 07:52:00,
2013-07-21 03:57:00,68.9,67.4,29.87,NW,313,3.5,3.5,95,0.00,CLR,,0.00,WeatherDisplay:10.37,2013-07-21 07:57:00,
2013-07-21 04:02:00,68.9,67.4,29.87,NW,313,2.3,2.3,95,0.00,CLR,,0.00,WeatherDisplay:10.37,2013-07-21 08:02:00,
2013-07-21 04:07:00,68.9,67.4,29.87,NW,313,1.2,1.2,95,0.00,CLR,,0.00,WeatherDisplay:10.37,2013-07-21 08:07:00,
2013-07-21 04:12:00,68.9,67.4,29.87,NW,313,0.0,0.0,95,0.00,CLR,,0.00,WeatherDisplay:10.37,2013-07-21 08:12:00,
2013-07-21 04:17:00,68.9,67.4,29.87,NW,313,0.0,0.0,95,0.00,CLR,,0.00,WeatherDisplay:10.37,2013-07-21 08:17:00,
2013-07-21 04:22:00,68.9,67.4,29.87,NW,313,0.0,0.0,95,0.00,CLR,,0.00,WeatherDisplay:10.37,2013-07-21 08:22:00,
2013-07-21 04:27:00,68.8,67.3,29.87,NW,313,0.0,0.0,95,0.00,CLR,,0.00,WeatherDisplay:10.37,2013-07-21 08:27:00,
2013-07-21 04:32:00,68.6,67.1,29.87,NW,313,0.0,0.0,95,0.00,CLR,,0.00,WeatherDisplay:10.37,2013-07-21 08:32:00,
2013-07-21 04:37:00,68.5,67.0,29.87,NW,313,0.0,0.0,95,0.00,CLR,,0.00,WeatherDisplay:10.37,2013-07-21 08:37:00,
2013-07-21 04:42:00,68.5,67.0,29.86,NW,313,1.2,1.2,95,0.00,CLR,,0.00,WeatherDisplay:10.37,2013-07-21 08:42:00,
2013-07-21 04:47:00,68.4,66.9,29.86,NW,313,1.2,0.0,95,0.00,CLR,,0.00,WeatherDisplay:10.37,2013-07-21 08:47:00,
2013-07-21 04:52:00,68.3,66.8,29.86,NW,313,0.0,0.0,95,0.00,CLR,,0.00,WeatherDisplay:10.37,2013-07-21 08:52:00,
2013-07-21 04:57:00,68.2,66.7,29.87,NW,313,0.0,0.0,95,0.00,CLR,,0.00,WeatherDisplay:10.37,2013-07-21 08:57:00,
2013-07-21 05:02:00,68.2,67.0,29.87,NW,313,0.0,0.0,96,0.00,CLR,,0.00,WeatherDisplay:10.37,2013-07-21 09:02:00,
2013-07-21 05:07:00,68.2,67.0,29.87,NW,313,2.0,2.0,96,0.00,CLR,,0.00,WeatherDisplay:10.37,2013-07-21 09:07:00,
2013-07-21 05:12:00,68.1,66.9,29.87,NW,313,1.2,1.2,96,0.00,CLR,,0.00,WeatherDisplay:10.37,2013-07-21 09:12:00,
2013-07-21 05:17:00,68.1,66.9,29.88,NW,313,1.2,1.2,96,0.00,CLR,,0.00,WeatherDisplay:10.37,2013-07-21 09:17:00,
2013-07-21 05:22:00,68.1,66.9,29.88,NW,313,0.0,0.0,96,0.00,CLR,,0.00,WeatherDisplay:10.37,2013-07-21 09:22:00,
2013-07-21 05:27:00,68.1,66.9,29.87,NW,313,0.0,0.0,96,0.00,CLR,,0.00,WeatherDisplay:10.37,2013-07-21 09:27:00,
2013-07-21 05:32:00,68.0,66.8,29.87,NW,313,1.2,1.2,96,0.00,CLR,,0.00,WeatherDisplay:10.37,2013-07-21 09:32:00,
2013-07-21 05:37:00,68.0,66.8,29.88,NW,313,1.2,1.2,96,0.00,CLR,,0.00,WeatherDisplay:10.37,2013-07-21 09:37:00,
2013-07-21 05:42:00,68.0,66.8,29.88,NW,313,0.0,0.0,96,0.00,CLR,,0.00,WeatherDisplay:10.37,2013-07-21 09:42:00,
2013-07-21 05:47:00,67.9,66.7,29.89,NW,313,0.0,0.0,96,0.00,CLR,,0.00,WeatherDisplay:10.37,2013-07-21 09:47:00,
2013-07-21 05:52:00,67.9,66.7,29.89,NW,313,0.0,0.0,96,0.00,CLR,,0.00,WeatherDisplay:10.37,2013-07-21 09:52:00,
2013-07-21 05:57:00,67.9,66.7,29.88,NW,313,0.0,0.0,96,0.00,CLR,,0.00,WeatherDisplay:10.37,2013-07-21 09:57:00,
2013-07-21 06:02:00,67.8,66.6,29.88,NW,313,0.0,0.0,96,0.00,CLR,,0.00,WeatherDisplay:10.37,2013-07-21 10:02:00,
2013-07-21 06:07:00,67.8,66.6,29.88,NW,313,1.2,0.0,96,0.00,CLR,,0.00,WeatherDisplay:10.37,2013-07-21 10:07:00,
2013-07-21 06:12:00,67.8,66.6,29.89,NW,313,0.0,0.0,96,0.00,CLR,,0.00,WeatherDisplay:10.37,2013-07-21 10:12:00,
2013-07-21 06:17:00,67.7,66.5,29.89,NW,313,1.2,0.0,96,0.00,CLR,,0.00,WeatherDisplay:10.37,2013-07-21 10:17:00,
2013-07-21 06:22:00,67.8,66.9,29.89,NW,313,0.0,0.0,97,0.00,CLR,,0.00,WeatherDisplay:10.37,2013-07-21 10:22:00,
2013-07-21 06:27:00,67.9,67.0,29.89,NW,313,0.0,0.0,97,0.00,CLR,,0.00,WeatherDisplay:10.37,2013-07-21 10:27:00,
2013-07-21 06:32:00,68.0,67.1,29.89,NW,313,0.0,0.0,97,0.00,CLR,,0.00,WeatherDisplay:10.37,2013-07-21 10:32:00,
2013-07-21 06:37:00,68.3,67.4,29.89,NW,313,2.3,2.3,97,0.00,CLR,,0.00,WeatherDisplay:10.37,2013-07-21 10:37:00,
2013-07-21 06:42:00,68.4,67.5,29.89,NW,313,2.3,2.3,97,0.00,CLR,,0.00,WeatherDisplay:10.37,2013-07-21 10:42:00,
2013-07-21 06:47:00,68.5,67.6,29.89,NW,313,1.2,1.2,97,0.00,CLR,,0.00,WeatherDisplay:10.37,2013-07-21 10:47:00,
2013-07-21 06:52:00,68.6,67.7,29.89,NW,313,0.0,0.0,97,0.00,CLR,,0.00,WeatherDisplay:10.37,2013-07-21 10:52:00,
2013-07-21 06:57:00,68.7,67.8,29.89,NW,313,0.0,0.1,97,0.00,CLR,,0.00,WeatherDisplay:10.37,2013-07-21 10:57:00,
2013-07-21 07:02:00,68.7,67.8,29.89,NW,313,0.0,0.0,97,0.00,CLR,,0.00,WeatherDisplay:10.37,2013-07-21 11:02:00,
2013-07-21 07:07:00,68.8,67.9,29.89,NW,313,0.0,0.0,97,0.00,CLR,,0.00,WeatherDisplay:10.37,2013-07-21 11:07:00,
2013-07-21 07:12:00,68.9,68.0,29.89,NW,313,1.2,0.0,97,0.00,CLR,,0.00,WeatherDisplay:10.37,2013-07-21 11:12:00,
2013-07-21 07:17:00,69.0,68.1,29.89,NW,313,0.0,0.0,97,0.00,CLR,,0.00,WeatherDisplay:10.37,2013-07-21 11:17:00,
2013-07-21 07:22:00,69.1,68.2,29.89,NW,313,0.0,0.0,97,0.00,CLR,,0.00,WeatherDisplay:10.37,2013-07-21 11:22:00,
2013-07-21 07:27:00,69.2,68.3,29.89,NW,313,1.2,1.2,97,0.00,CLR,,0.00,WeatherDisplay:10.37,2013-07-21 11:27:00,
2013-07-21 07:32:00,69.3,68.4,29.90,NW,313,2.3,2.3,97,0.00,CLR,,0.00,WeatherDisplay:10.37,2013-07-21 11:32:00,
2013-07-21 07:37:00,69.5,68.6,29.90,NW,313,0.0,0.0,97,0.00,CLR,,0.00,WeatherDisplay:10.37,2013-07-21 11:37:00,
2013-07-21 07:42:00,69.6,68.4,29.90,NW,313,2.3,2.3,96,0.00,CLR,,0.00,WeatherDisplay:10.37,2013-07-21 11:42:00,
2013-07-21 07:47:00,69.7,68.5,29.90,NW,313,2.0,2.0,96,0.00,CLR,,0.00,WeatherDisplay:10.37,2013-07-21 11:47:00,
2013-07-21 07:52:00,69.7,68.5,29.90,NW,313,1.2,1.2,96,0.00,CLR,,0.00,WeatherDisplay:10.37,2013-07-21 11:52:00,
2013-07-21 07:57:00,69.9,68.7,29.90,NW,313,3.5,3.5,96,0.00,CLR,,0.00,WeatherDisplay:10.37,2013-07-21 11:57:00,
2013-07-21 08:02:00,70.0,68.8,29.90,NW,313,2.3,2.3,96,0.00,CLR,,0.00,WeatherDisplay:10.37,2013-07-21 12:02:00,
2013-07-21 08:07:00,70.1,68.9,29.90,NW,313,2.3,2.3,96,0.00,CLR,,0.00,WeatherDisplay:10.37,2013-07-21 12:07:00,
2013-07-21 08:12:00,70.2,69.0,29.90,NW,313,1.2,1.2,96,0.00,CLR,,0.00,WeatherDisplay:10.37,2013-07-21 12:12:00,
2013-07-21 08:17:00,70.3,69.1,29.90,NW,313,2.3,2.3,96,0.00,CLR,,0.00,WeatherDisplay:10.37,2013-07-21 12:17:00,
2013-07-21 08:22:00,70.4,69.2,29.90,NW,313,1.2,1.2,96,0.00,CLR,,0.00,WeatherDisplay:10.37,2013-07-21 12:22:00,
2013-07-21 08:28:00,70.6,69.4,29.90,NW,313,1.2,1.2,96,0.00,CLR,,0.00,WeatherDisplay:10.37,2013-07-21 12:28:00,
2013-07-21 08:33:00,70.6,69.4,29.91,NW,313,1.2,1.2,96,0.00,CLR,,0.00,WeatherDisplay:10.37,2013-07-21 12:33:00,
2013-07-21 08:38:00,70.6,69.1,29.91,NW,313,2.0,2.0,95,0.00,CLR,,0.00,WeatherDisplay:10.37,2013-07-21 12:38:00,
2013-07-21 08:43:00,70.7,69.2,29.91,NW,313,2.3,2.3,95,0.00,CLR,,0.00,WeatherDisplay:10.37,2013-07-21 12:43:00,
2013-07-21 08:48:00,70.8,69.3,29.91,NW,313,1.2,0.0,95,0.00,CLR,,0.00,WeatherDisplay:10.37,2013-07-21 12:48:00,
2013-07-21 08:53:00,70.9,69.4,29.91,NW,313,1.2,1.2,95,0.00,CLR,,0.00,WeatherDisplay:10.37,2013-07-21 12:53:00,
2013-07-21 08:58:00,71.0,69.5,29.91,NW,313,1.0,1.0,95,0.00,CLR,,0.00,WeatherDisplay:10.37,2013-07-21 12:58:00,
2013-07-21 09:03:00,71.1,69.6,29.92,NW,313,3.5,3.5,95,0.00,CLR,,0.00,WeatherDisplay:10.37,2013-07-21 13:03:00,
2013-07-21 09:08:00,71.3,69.8,29.91,NW,313,0.0,0.0,95,0.00,CLR,,0.00,WeatherDisplay:10.37,2013-07-21 13:08:00,
2013-07-21 09:13:00,71.7,70.2,29.92,NW,313,0.0,0.0,95,0.00,CLR,,0.00,WeatherDisplay:10.37,2013-07-21 13:13:00,
2013-07-21 09:18:00,71.9,70.1,29.92,NW,313,1.2,1.2,94,0.00,CLR,,0.00,WeatherDisplay:10.37,2013-07-21 13:18:00,
2013-07-21 09:23:00,72.1,70.3,29.91,NW,313,2.3,0.0,94,0.00,CLR,,0.00,WeatherDisplay:10.37,2013-07-21 13:23:00,
2013-07-21 09:28:00,72.3,70.2,29.91,NW,313,1.2,1.2,93,0.00,CLR,,0.00,WeatherDisplay:10.37,2013-07-21 13:28:00,
2013-07-21 09:33:00,72.6,70.8,29.91,South,174,2.0,2.0,94,0.00,CLR,,0.00,WeatherDisplay:10.37,2013-07-21 13:33:00,
2013-07-21 09:38:00,72.9,71.1,29.91,South,174,1.2,0.0,94,0.00,CLR,,0.00,WeatherDisplay:10.37,2013-07-21 13:38:00,
2013-07-21 09:43:00,73.1,71.0,29.91,South,174,1.2,0.0,93,0.00,CLR,,0.00,WeatherDisplay:10.37,2013-07-21 13:43:00,
2013-07-21 09:48:00,73.2,70.7,29.91,SE,143,0.0,0.0,92,0.00,CLR,,0.00,WeatherDisplay:10.37,2013-07-21 13:48:00,
2013-07-21 09:53:00,73.3,70.5,29.92,SSE,161,1.0,1.0,91,0.00,CLR,,0.00,WeatherDisplay:10.37,2013-07-21 13:53:00,
2013-07-21 09:58:00,73.5,71.0,29.91,SSE,160,2.3,2.3,92,0.00,CLR,,0.00,WeatherDisplay:10.37,2013-07-21 13:58:00,
2013-07-21 10:03:00,73.6,70.8,29.91,SSE,160,2.3,2.3,91,0.00,CLR,,0.00,WeatherDisplay:10.37,2013-07-21 14:03:00,
2013-07-21 10:08:00,73.8,71.0,29.92,SSE,160,2.3,2.3,91,0.00,CLR,,0.00,WeatherDisplay:10.37,2013-07-21 14:08:00,
2013-07-21 10:13:00,74.1,71.3,29.92,SSE,160,3.5,3.5,91,0.00,CLR,,0.00,WeatherDisplay:10.37,2013-07-21 14:13:00,
2013-07-21 10:18:00,74.2,71.1,29.92,SSE,160,0.0,0.0,90,0.00,CLR,,0.00,WeatherDisplay:10.37,2013-07-21 14:18:00,
2013-07-21 10:23:00,74.4,71.3,29.92,SSE,160,0.0,0.0,90,0.00,CLR,,0.00,WeatherDisplay:10.37,2013-07-21 14:23:00,
2013-07-21 10:28:00,74.6,71.5,29.92,SSE,160,1.2,1.2,90,0.00,CLR,,0.00,WeatherDisplay:10.37,2013-07-21 14:28:00,
2013-07-21 10:33:00,74.7,71.2,29.92,SSE,159,3.5,3.5,89,0.00,CLR,,0.00,WeatherDisplay:10.37,2013-07-21 14:33:00,
2013-07-21 10:38:00,74.9,71.8,29.92,NW,316,3.5,3.5,90,0.00,CLR,,0.00,WeatherDisplay:10.37,2013-07-21 14:38:00,
2013-07-21 10:43:00,75.1,72.0,29.92,WNW,301,3.5,3.5,90,0.00,CLR,,0.00,WeatherDisplay:10.37,2013-07-21 14:43:00,
2013-07-21 10:48:00,75.2,71.7,29.92,WNW,301,2.3,2.3,89,0.00,CLR,,0.00,WeatherDisplay:10.37,2013-07-21 14:48:00,
2013-07-21 10:53:00,75.5,72.0,29.92,NW,321,3.5,3.5,89,0.00,CLR,,0.00,WeatherDisplay:10.37,2013-07-21 14:53:00,
2013-07-21 10:58:00,75.6,72.1,29.92,NNW,332,3.5,3.5,89,0.00,CLR,,0.00,WeatherDisplay:10.37,2013-07-21 14:58:00,
2013-07-21 11:03:00,75.5,72.0,29.92,NNW,332,1.2,1.2,89,0.00,CLR,,0.00,WeatherDisplay:10.37,2013-07-21 15:03:00,
2013-07-21 11:08:00,75.8,72.7,29.92,NNW,333,2.0,2.0,90,0.00,CLR,,0.00,WeatherDisplay:10.37,2013-07-21 15:08:00,
2013-07-21 11:13:00,75.9,72.4,29.92,North,360,3.5,3.5,89,0.00,CLR,,0.00,WeatherDisplay:10.37,2013-07-21 15:13:00,
2013-07-21 11:18:00,76.0,72.2,29.92,North,10,3.5,3.5,88,0.00,CLR,,0.00,WeatherDisplay:10.37,2013-07-21 15:18:00,
2013-07-21 11:23:00,76.0,72.2,29.92,NW,316,2.3,2.3,88,0.00,CLR,,0.00,WeatherDisplay:10.37,2013-07-21 15:23:00,
2013-07-21 11:28:00,76.3,72.5,29.92,NW,312,3.5,3.5,88,0.00,CLR,,0.00,WeatherDisplay:10.37,2013-07-21 15:28:00,
2013-07-21 11:33:00,76.6,72.8,29.93,NW,313,1.0,1.0,88,0.00,CLR,,0.00,WeatherDisplay:10.37,2013-07-21 15:33:00,
2013-07-21 11:38:00,76.9,73.1,29.93,North,349,3.5,3.5,88,0.00,CLR,,0.00,WeatherDisplay:10.37,2013-07-21 15:38:00,
2013-07-21 11:43:00,77.3,72.8,29.93,NNW,347,2.3,2.3,86,0.00,CLR,,0.00,WeatherDisplay:10.37,2013-07-21 15:43:00,
2013-07-21 11:48:00,77.9,73.4,29.92,North,350,3.5,3.5,86,0.00,CLR,,0.00,WeatherDisplay:10.37,2013-07-21 15:48:00,
2013-07-21 11:53:00,77.9,73.0,29.92,NNE,18,1.0,1.0,85,0.00,CLR,,0.00,WeatherDisplay:10.37,2013-07-21 15:53:00,
2013-07-21 11:58:00,78.9,74.4,29.92,NNE,17,3.5,3.5,86,0.00,CLR,,0.00,WeatherDisplay:10.37,2013-07-21 15:58:00,
2013-07-21 12:03:00,79.7,74.1,29.92,SW,229,3.5,3.5,83,0.00,CLR,,0.00,WeatherDisplay:10.37,2013-07-21 16:03:00,
2013-07-21 12:08:00,79.7,74.1,29.92,NNW,327,3.5,3.5,83,0.00,CLR,,0.00,WeatherDisplay:10.37,2013-07-21 16:08:00,
2013-07-21 12:13:00,80.0,74.4,29.92,WNW,290,1.2,1.2,83,0.00,CLR,,0.00,WeatherDisplay:10.37,2013-07-21 16:13:00,
2013-07-21 12:18:00,80.2,74.2,29.92,WNW,292,5.8,5.8,82,0.00,CLR,,0.00,WeatherDisplay:10.37,2013-07-21 16:18:00,
2013-07-21 12:23:00,79.9,73.9,29.92,NNW,344,4.6,4.6,82,0.00,CLR,,0.00,WeatherDisplay:10.37,2013-07-21 16:23:00,
2013-07-21 12:28:00,80.6,73.9,29.92,WNW,302,3.5,3.5,80,0.00,CLR,,0.00,WeatherDisplay:10.37,2013-07-21 16:28:00,
2013-07-21 12:33:00,80.7,74.7,29.92,ENE,73,4.0,4.0,82,0.00,CLR,,0.00,WeatherDisplay:10.37,2013-07-21 16:33:00,
2013-07-21 12:38:00,81.1,75.1,29.92,NNW,340,4.0,4.0,82,0.00,CLR,,0.00,WeatherDisplay:10.37,2013-07-21 16:38:00,
2013-07-21 12:43:00,81.1,74.0,29.92,NNE,15,2.0,2.0,79,0.00,CLR,,0.00,WeatherDisplay:10.37,2013-07-21 16:43:00,
2013-07-21 12:48:00,81.5,74.7,29.92,NNW,336,3.5,3.5,80,0.00,CLR,,0.00,WeatherDisplay:10.37,2013-07-21 16:48:00,
2013-07-21 12:53:00,81.5,73.6,29.92,North,360,3.5,3.5,77,0.00,CLR,,0.00,WeatherDisplay:10.37,2013-07-21 16:53:00,
2013-07-21 12:58:00,81.5,74.7,29.91,NNW,339,3.5,3.5,80,0.00,CLR,,0.00,WeatherDisplay:10.37,2013-07-21 16:58:00,
2013-07-21 13:03:00,81.5,74.7,29.91,ENE,63,2.3,2.3,80,0.00,CLR,,0.00,WeatherDisplay:10.37,2013-07-21 17:03:00,
2013-07-21 13:08:00,82.0,74.5,29.91,SE,128,3.5,3.5,78,0.00,CLR,,0.00,WeatherDisplay:10.37,2013-07-21 17:08:00,
2013-07-21 13:13:00,81.8,73.9,29.91,North,9,3.5,3.5,77,0.00,CLR,,0.00,WeatherDisplay:10.37,2013-07-21 17:13:00,
2013-07-21 13:18:00,82.2,75.4,29.91,West,279,6.9,6.9,80,0.00,CLR,,0.00,WeatherDisplay:10.37,2013-07-21 17:18:00,
2013-07-21 13:23:00,82.2,74.7,29.91,NNW,336,3.5,3.5,78,0.00,CLR,,0.00,WeatherDisplay:10.37,2013-07-21 17:23:00,
2013-07-21 13:28:00,81.9,74.4,29.91,NNW,341,3.5,3.5,78,0.00,CLR,,0.00,WeatherDisplay:10.37,2013-07-21 17:28:00,
2013-07-21 13:33:00,82.3,75.1,29.91,NNE,13,3.5,3.5,79,0.00,CLR,,0.00,WeatherDisplay:10.37,2013-07-21 17:33:00,
2013-07-21 13:38:00,82.1,74.2,29.91,North,355,4.0,4.0,77,0.00,CLR,,0.00,WeatherDisplay:10.37,2013-07-21 17:38:00,
2013-07-21 13:43:00,82.1,74.2,29.91,North,350,3.5,3.5,77,0.00,CLR,,0.00,WeatherDisplay:10.37,2013-07-21 17:43:00,
2013-07-21 13:48:00,82.2,74.7,29.91,North,355,8.1,8.1,78,0.00,CLR,,0.00,WeatherDisplay:10.37,2013-07-21 17:48:00,
2013-07-21 13:53:00,82.0,74.5,29.90,NNW,348,3.0,3.0,78,0.00,CLR,,0.00,WeatherDisplay:10.37,2013-07-21 17:53:00,
2013-07-21 13:58:00,82.6,75.0,29.90,North,5,1.2,0.0,78,0.00,CLR,,0.00,WeatherDisplay:10.37,2013-07-21 17:58:00,
2013-07-21 14:03:00,83.1,74.4,29.90,NE,44,3.5,3.5,75,0.00,CLR,,0.00,WeatherDisplay:10.37,2013-07-21 18:03:00,
2013-07-21 14:08:00,82.6,73.5,29.90,ENE,78,3.5,3.5,74,0.00,CLR,,0.00,WeatherDisplay:10.37,2013-07-21 18:08:00,
2013-07-21 14:13:00,82.5,73.4,29.91,NNE,33,4.0,4.0,74,0.00,CLR,,0.00,WeatherDisplay:10.37,2013-07-21 18:13:00,
2013-07-21 14:18:00,82.9,74.9,29.90,ENE,72,3.5,3.5,77,0.00,CLR,,0.00,WeatherDisplay:10.37,2013-07-21 18:18:00,
2013-07-21 14:23:00,82.9,74.2,29.90,East,81,3.5,3.5,75,0.00,CLR,,0.00,WeatherDisplay:10.37,2013-07-21 18:23:00,
2013-07-21 14:28:00,83.8,75.0,29.90,NNE,19,3.5,3.5,75,0.00,CLR,,0.00,WeatherDisplay:10.37,2013-07-21 18:28:00,
2013-07-21 14:33:00,83.7,74.1,29.90,ESE,107,3.5,3.5,73,0.00,CLR,,0.00,WeatherDisplay:10.37,2013-07-21 18:33:00,
2013-07-21 14:38:00,83.4,74.6,29.90,NNE,32,8.1,8.1,75,0.00,CLR,,0.00,WeatherDisplay:10.37,2013-07-21 18:38:00,
2013-07-21 14:43:00,83.6,74.4,29.90,North,11,4.6,4.6,74,0.00,CLR,,0.00,WeatherDisplay:10.37,2013-07-21 18:43:00,
2013-07-21 14:48:00,83.6,74.0,29.89,NNW,344,6.0,6.0,73,0.00,CLR,,0.00,WeatherDisplay:10.37,2013-07-21 18:48:00,
2013-07-21 14:53:00,83.2,72.8,29.89,ENE,71,3.5,3.5,71,0.00,CLR,,0.00,WeatherDisplay:10.37,2013-07-21 18:53:00,
2013-07-21 14:58:00,82.7,72.7,29.88,NE,38,4.6,4.6,72,0.00,CLR,,0.00,WeatherDisplay:10.37,2013-07-21 18:58:00,
2013-07-21 15:03:00,83.9,74.3,29.88,NNE,30,5.8,5.8,73,0.00,CLR,,0.00,WeatherDisplay:10.37,2013-07-21 19:03:00,
2013-07-21 15:09:00,83.9,73.1,29.88,NE,34,3.5,3.5,70,0.00,CLR,,0.00,WeatherDisplay:10.37,2013-07-21 19:09:00,
2013-07-21 15:14:00,83.6,73.2,29.88,NE,51,3.5,3.5,71,0.00,CLR,,0.00,WeatherDisplay:10.37,2013-07-21 19:14:00,
2013-07-21 15:19:00,84.4,72.7,29.88,NE,48,3.5,3.5,68,0.00,CLR,,0.00,WeatherDisplay:10.37,2013-07-21 19:19:00,
2013-07-21 15:24:00,84.3,73.4,29.88,East,98,6.9,6.9,70,0.00,CLR,,0.00,WeatherDisplay:10.37,2013-07-21 19:24:00,
2013-07-21 15:29:00,84.3,72.6,29.88,SE,130,3.5,3.5,68,0.00,CLR,,0.00,WeatherDisplay:10.37,2013-07-21 19:29:00,
2013-07-21 15:34:00,83.9,72.2,29.88,ENE,77,3.5,3.5,68,0.00,CLR,,0.00,WeatherDisplay:10.37,2013-07-21 19:34:00,
2013-07-21 15:39:00,83.8,73.4,29.88,NE,52,3.5,3.5,71,0.00,CLR,,0.00,WeatherDisplay:10.37,2013-07-21 19:39:00,
2013-07-21 15:44:00,84.2,72.9,29.88,NE,43,4.6,4.6,69,0.00,CLR,,0.00,WeatherDisplay:10.37,2013-07-21 19:44:00,
2013-07-21 15:49:00,83.6,72.8,29.87,NE,49,5.8,5.8,70,0.00,CLR,,0.00,WeatherDisplay:10.37,2013-07-21 19:49:00,
2013-07-21 15:54:00,83.2,73.2,29.87,ENE,65,3.5,3.5,72,0.00,CLR,,0.00,WeatherDisplay:10.37,2013-07-21 19:54:00,
2013-07-21 15:59:00,82.9,72.9,29.87,ENE,58,4.0,4.0,72,0.00,CLR,,0.00,WeatherDisplay:10.37,2013-07-21 19:59:00,
2013-07-21 16:04:00,83.6,73.6,29.86,East,94,2.3,2.3,72,0.00,CLR,,0.00,WeatherDisplay:10.37,2013-07-21 20:04:00,
2013-07-21 16:09:00,84.1,72.8,29.86,East,91,6.0,6.0,69,0.00,CLR,,0.00,WeatherDisplay:10.37,2013-07-21 20:09:00,
2013-07-21 16:14:00,84.9,73.2,29.86,ESE,106,8.1,8.1,68,0.00,CLR,,0.00,WeatherDisplay:10.37,2013-07-21 20:14:00,
2013-07-21 16:19:00,85.0,72.8,29.86,SE,128,3.5,3.5,67,0.00,CLR,,0.00,WeatherDisplay:10.37,2013-07-21 20:19:00,
2013-07-21 16:24:00,85.1,71.5,29.86,NNE,26,9.2,9.2,64,0.00,CLR,,0.00,WeatherDisplay:10.37,2013-07-21 20:24:00,
2013-07-21 16:29:00,85.0,72.4,29.86,NE,46,5.8,5.8,66,0.00,CLR,,0.00,WeatherDisplay:10.37,2013-07-21 20:29:00,
2013-07-21 16:34:00,84.9,71.8,29.86,East,89,4.6,4.6,65,0.00,CLR,,0.00,WeatherDisplay:10.37,2013-07-21 20:34:00,
2013-07-21 16:39:00,85.1,72.5,29.86,SE,139,3.5,3.5,66,0.00,CLR,,0.00,WeatherDisplay:10.37,2013-07-21 20:39:00,
2013-07-21 16:44:00,84.9,71.8,29.85,East,81,5.8,5.8,65,0.00,CLR,,0.00,WeatherDisplay:10.37,2013-07-21 20:44:00,
2013-07-21 16:49:00,86.0,71.9,29.86,North,350,2.3,2.3,63,0.00,CLR,,0.00,WeatherDisplay:10.37,2013-07-21 20:49:00,
2013-07-21 16:54:00,87.6,73.4,29.86,NNE,25,5.8,5.8,63,0.00,CLR,,0.00,WeatherDisplay:10.37,2013-07-21 20:54:00,
2013-07-21 16:59:00,86.3,70.8,29.85,ENE,58,2.3,2.3,60,0.00,CLR,,0.00,WeatherDisplay:10.37,2013-07-21 20:59:00,
2013-07-21 17:04:00,85.0,70.5,29.85,ESE,102,3.5,3.5,62,0.00,CLR,,0.00,WeatherDisplay:10.37,2013-07-21 21:04:00,
2013-07-21 17:09:00,85.0,71.0,29.86,East,96,6.0,6.0,63,0.00,CLR,,0.00,WeatherDisplay:10.37,2013-07-21 21:09:00,
2013-07-21 17:14:00,85.5,72.8,29.85,ENE,58,5.8,5.8,66,0.00,CLR,,0.00,WeatherDisplay:10.37,2013-07-21 21:14:00,
2013-07-21 17:19:00,86.4,73.7,29.85,East,92,4.6,4.6,66,0.00,CLR,,0.00,WeatherDisplay:10.37,2013-07-21 21:19:00,
2013-07-21 17:24:00,85.6,71.6,29.85,ENE,59,5.8,5.8,63,0.00,CLR,,0.00,WeatherDisplay:10.37,2013-07-21 21:24:00,
2013-07-21 17:29:00,85.6,72.0,29.85,North,355,8.1,8.1,64,0.00,CLR,,0.00,WeatherDisplay:10.37,2013-07-21 21:29:00,
2013-07-21 17:34:00,85.7,72.1,29.85,ENE,72,6.9,6.9,64,0.00,CLR,,0.00,WeatherDisplay:10.37,2013-07-21 21:34:00,
2013-07-21 17:39:00,85.5,71.9,29.85,NE,53,4.6,4.6,64,0.00,CLR,,0.00,WeatherDisplay:10.37,2013-07-21 21:39:00,
2013-07-21 17:44:00,85.8,72.2,29.85,SE,132,2.3,2.3,64,0.00,CLR,,0.00,WeatherDisplay:10.37,2013-07-21 21:44:00,
2013-07-21 17:49:00,85.8,72.7,29.85,ESE,104,3.5,3.5,65,0.00,CLR,,0.00,WeatherDisplay:10.37,2013-07-21 21:49:00,
2013-07-21 17:54:00,85.9,72.3,29.84,ESE,107,3.5,3.5,64,0.00,CLR,,0.00,WeatherDisplay:10.37,2013-07-21 21:54:00,
2013-07-21 17:59:00,85.4,72.3,29.84,ESE,105,6.9,6.9,65,0.00,CLR,,0.00,WeatherDisplay:10.37,2013-07-21 21:59:00,
2013-07-21 18:04:00,84.5,71.9,29.84,ENE,74,2.3,2.3,66,0.00,CLR,,0.00,WeatherDisplay:10.37,2013-07-21 22:04:00,
2013-07-21 18:09:00,83.9,71.8,29.84,East,85,6.9,6.9,67,0.00,CLR,,0.00,WeatherDisplay:10.37,2013-07-21 22:09:00,
2013-07-21 18:14:00,83.9,72.6,29.84,ENE,65,3.5,3.5,69,0.00,CLR,,0.00,WeatherDisplay:10.37,2013-07-21 22:14:00,
2013-07-21 18:19:00,83.9,71.8,29.84,ENE,73,4.0,4.0,67,0.00,CLR,,0.00,WeatherDisplay:10.37,2013-07-21 22:19:00,
2013-07-21 18:24:00,83.8,72.5,29.83,East,90,3.5,3.5,69,0.00,CLR,,0.00,WeatherDisplay:10.37,2013-07-21 22:24:00,
2013-07-21 18:29:00,83.9,73.9,29.83,NE,40,3.5,3.5,72,0.00,CLR,,0.00,WeatherDisplay:10.37,2013-07-21 22:29:00,
2013-07-21 18:34:00,84.2,72.9,29.83,East,81,4.6,4.6,69,0.00,CLR,,0.00,WeatherDisplay:10.37,2013-07-21 22:34:00,
2013-07-21 18:39:00,84.5,72.8,29.83,ENE,75,8.0,8.0,68,0.00,CLR,,0.00,WeatherDisplay:10.37,2013-07-21 22:39:00,
2013-07-21 18:44:00,84.6,72.4,29.83,ENE,69,5.8,5.8,67,0.00,CLR,,0.00,WeatherDisplay:10.37,2013-07-21 22:44:00,
2013-07-21 18:49:00,84.6,72.0,29.83,East,90,4.6,4.6,66,0.00,CLR,,0.00,WeatherDisplay:10.37,2013-07-21 22:49:00,
2013-07-21 18:54:00,84.0,71.9,29.83,ENE,67,6.0,6.0,67,0.00,CLR,,0.00,WeatherDisplay:10.37,2013-07-21 22:54:00,
2013-07-21 18:59:00,83.4,72.2,29.82,NE,44,3.5,3.5,69,0.00,CLR,,0.00,WeatherDisplay:10.37,2013-07-21 22:59:00,
2013-07-21 19:04:00,83.1,72.7,29.82,NE,46,3.5,3.7,71,0.00,CLR,,0.00,WeatherDisplay:10.37,2013-07-21 23:04:00,
2013-07-21 19:09:00,82.7,72.3,29.83,NNE,32,2.3,2.3,71,0.00,CLR,,0.00,WeatherDisplay:10.37,2013-07-21 23:09:00,
2013-07-21 19:14:00,82.4,72.5,29.83,NE,56,3.5,3.5,72,0.00,CLR,,0.00,WeatherDisplay:10.37,2013-07-21 23:14:00,
2013-07-21 19:19:00,82.2,72.3,29.83,ENE,64,1.2,1.2,72,0.00,CLR,,0.00,WeatherDisplay:10.37,2013-07-21 23:19:00,
2013-07-21 19:24:00,82.0,72.5,29.83,NNE,15,2.3,0.0,73,0.00,CLR,,0.00,WeatherDisplay:10.37,2013-07-21 23:24:00,
2013-07-21 19:29:00,81.7,71.8,29.83,ESE,112,3.5,3.5,72,0.00,CLR,,0.00,WeatherDisplay:10.37,2013-07-21 23:29:00,
2013-07-21 19:34:00,81.5,72.4,29.83,East,81,2.3,2.3,74,0.00,CLR,,0.00,WeatherDisplay:10.37,2013-07-21 23:34:00,
2013-07-21 19:39:00,81.2,71.7,29.83,East,88,3.5,3.5,73,0.00,CLR,,0.00,WeatherDisplay:10.37,2013-07-21 23:39:00,
2013-07-21 19:44:00,80.9,71.8,29.83,North,5,4.6,4.6,74,0.00,CLR,,0.00,WeatherDisplay:10.37,2013-07-21 23:44:00,
2013-07-21 19:49:00,80.7,72.0,29.83,East,88,4.6,4.6,75,0.00,CLR,,0.00,WeatherDisplay:10.37,2013-07-21 23:49:00,
2013-07-21 19:54:00,80.5,71.8,29.83,NE,46,3.5,3.5,75,0.00,CLR,,0.00,WeatherDisplay:10.37,2013-07-21 23:54:00,
2013-07-21 19:59:00,80.4,72.1,29.83,ENE,73,3.5,3.5,76,0.00,CLR,,0.00,WeatherDisplay:10.37,2013-07-21 23:59:00,
2013-07-21 20:04:00,80.2,71.6,29.83,East,90,3.0,3.0,75,0.00,CLR,,0.00,WeatherDisplay:10.37,2013-07-22 00:04:00,
2013-07-21 20:09:00,80.1,71.5,29.83,East,93,3.5,3.5,75,0.00,CLR,,0.00,WeatherDisplay:10.37,2013-07-22 00:09:00,
2013-07-21 20:15:00,79.9,71.3,29.83,East,81,3.5,3.5,75,0.00,CLR,,0.00,WeatherDisplay:10.37,2013-07-22 00:15:00,
2013-07-21 20:20:00,79.7,71.1,29.83,NE,55,4.6,4.6,75,0.00,CLR,,0.00,WeatherDisplay:10.37,2013-07-22 00:20:00,
2013-07-21 20:25:00,79.6,71.4,29.83,East,90,2.3,2.3,76,0.00,CLR,,0.00,WeatherDisplay:10.37,2013-07-22 00:25:00,
2013-07-21 20:30:00,79.4,71.6,29.83,East,86,3.5,3.5,77,0.00,CLR,,0.00,WeatherDisplay:10.37,2013-07-22 00:30:00,
2013-07-21 20:35:00,79.2,71.0,29.83,East,84,3.5,3.5,76,0.00,CLR,,0.00,WeatherDisplay:10.37,2013-07-22 00:35:00,
2013-07-21 20:40:00,79.0,71.2,29.83,ENE,69,3.5,3.5,77,0.00,CLR,,0.00,WeatherDisplay:10.37,2013-07-22 00:40:00,
2013-07-21 20:45:00,78.9,71.1,29.83,ENE,71,1.0,3.0,77,0.00,CLR,,0.00,WeatherDisplay:10.37,2013-07-22 00:45:00,
2013-07-21 20:50:00,78.7,71.3,29.84,ENE,69,1.0,3.0,78,0.00,CLR,,0.00,WeatherDisplay:10.37,2013-07-22 00:50:00,
2013-07-21 20:55:00,78.5,71.8,29.84,ENE,77,2.3,2.3,80,0.00,CLR,,0.00,WeatherDisplay:10.37,2013-07-22 00:55:00,
2013-07-21 21:00:00,78.3,71.6,29.84,East,80,1.2,1.2,80,0.00,CLR,,0.00,WeatherDisplay:10.37,2013-07-22 01:00:00,
2013-07-21 21:05:00,78.2,71.9,29.84,East,80,2.3,0.0,81,0.00,CLR,,0.00,WeatherDisplay:10.37,2013-07-22 01:05:00,
2013-07-21 21:10:00,78.0,71.7,29.84,East,80,2.3,0.0,81,0.00,CLR,,0.00,WeatherDisplay:10.37,2013-07-22 01:10:00,
2013-07-21 21:15:00,77.9,72.0,29.84,East,80,0.0,1.0,82,0.00,CLR,,0.00,WeatherDisplay:10.37,2013-07-22 01:15:00,
2013-07-21 21:20:00,77.8,71.8,29.85,East,80,1.0,2.0,82,0.00,CLR,,0.00,WeatherDisplay:10.37,2013-07-22 01:20:00,
2013-07-21 21:25:00,77.7,72.1,29.85,East,80,1.2,1.2,83,0.00,CLR,,0.00,WeatherDisplay:10.37,2013-07-22 01:25:00,
2013-07-21 21:30:00,77.6,71.6,29.85,East,80,1.0,3.0,82,0.00,CLR,,0.00,WeatherDisplay:10.37,2013-07-22 01:30:00,
2013-07-21 21:35:00,77.5,71.9,29.85,East,86,2.0,2.0,83,0.00,CLR,,0.00,WeatherDisplay:10.37,2013-07-22 01:35:00,
2013-07-21 21:40:00,77.5,71.9,29.85,East,86,2.3,2.3,83,0.00,CLR,,0.00,WeatherDisplay:10.37,2013-07-22 01:40:00,
2013-07-21 21:45:00,77.5,71.9,29.85,East,86,1.0,4.0,83,0.00,CLR,,0.00,WeatherDisplay:10.37,2013-07-22 01:45:00,
2013-07-21 21:50:00,77.5,71.9,29.85,East,87,3.5,3.5,83,0.00,CLR,,0.00,WeatherDisplay:10.37,2013-07-22 01:50:00,
2013-07-21 21:55:00,77.5,71.9,29.85,East,88,0.0,3.0,83,0.00,CLR,,0.00,WeatherDisplay:10.37,2013-07-22 01:55:00,
2013-07-21 22:00:00,77.5,71.9,29.85,East,87,3.5,3.5,83,0.00,CLR,,0.00,WeatherDisplay:10.37,2013-07-22 02:00:00,
2013-07-21 22:05:00,77.4,72.2,29.86,East,87,3.5,3.5,84,0.00,CLR,,0.00,WeatherDisplay:10.37,2013-07-22 02:05:00,
2013-07-21 22:10:00,77.4,72.2,29.86,East,87,1.0,3.0,84,0.00,CLR,,0.00,WeatherDisplay:10.37,2013-07-22 02:10:00,
2013-07-21 22:15:00,77.4,72.2,29.86,East,87,0.0,3.0,84,0.00,CLR,,0.00,WeatherDisplay:10.37,2013-07-22 02:15:00,
2013-07-21 22:20:00,77.4,72.2,29.86,East,87,1.0,4.0,84,0.00,CLR,,0.00,WeatherDisplay:10.37,2013-07-22 02:20:00,
2013-07-21 22:25:00,77.3,72.1,29.86,East,87,0.0,1.0,84,0.00,CLR,,0.00,WeatherDisplay:10.37,2013-07-22 02:25:00,
2013-07-21 22:30:00,77.3,72.1,29.86,ESE,102,0.0,2.0,84,0.00,CLR,,0.00,WeatherDisplay:10.37,2013-07-22 02:30:00,
2013-07-21 22:35:00,77.3,72.4,29.86,East,85,3.5,3.5,85,0.00,CLR,,0.00,WeatherDisplay:10.37,2013-07-22 02:35:00,
2013-07-21 22:40:00,77.2,72.3,29.86,East,85,3.5,3.5,85,0.00,CLR,,0.00,WeatherDisplay:10.37,2013-07-22 02:40:00,
2013-07-21 22:45:00,77.1,72.3,29.86,East,85,2.0,4.0,85,0.00,CLR,,0.00,WeatherDisplay:10.37,2013-07-22 02:45:00,
2013-07-21 22:50:00,77.1,72.2,29.85,East,84,3.0,3.0,85,0.00,CLR,,0.00,WeatherDisplay:10.37,2013-07-22 02:50:00,
2013-07-21 22:55:00,77.1,72.2,29.85,ENE,77,3.5,3.5,85,0.00,CLR,,0.00,WeatherDisplay:10.37,2013-07-22 02:55:00,
2013-07-21 23:00:00,77.0,72.1,29.85,East,84,1.0,2.0,85,0.00,CLR,,0.00,WeatherDisplay:10.37,2013-07-22 03:00:00,
2013-07-21 23:05:00,77.0,72.5,29.86,ENE,77,1.0,4.0,86,0.00,CLR,,0.00,WeatherDisplay:10.37,2013-07-22 03:05:00,
2013-07-21 23:10:00,76.9,72.4,29.86,ENE,77,0.0,2.0,86,0.00,CLR,,0.00,WeatherDisplay:10.37,2013-07-22 03:10:00,
2013-07-21 23:15:00,76.9,72.4,29.86,ENE,67,3.0,3.0,86,0.00,CLR,,0.00,WeatherDisplay:10.37,2013-07-22 03:15:00,
2013-07-21 23:20:00,76.8,72.3,29.86,ENE,69,2.3,0.0,86,0.00,CLR,,0.00,WeatherDisplay:10.37,2013-07-22 03:20:00,
2013-07-21 23:25:00,76.7,72.2,29.86,ENE,68,0.0,1.0,86,0.00,CLR,,0.00,WeatherDisplay:10.37,2013-07-22 03:25:00,
2013-07-21 23:30:00,76.7,72.5,29.86,ENE,69,0.0,0.0,87,0.00,CLR,,0.00,WeatherDisplay:10.37,2013-07-22 03:30:00,
2013-07-21 23:35:00,76.6,72.4,29.86,ENE,69,2.3,2.3,87,0.00,CLR,,0.00,WeatherDisplay:10.37,2013-07-22 03:35:00,
2013-07-21 23:40:00,76.6,72.4,29.86,ENE,69,0.0,2.0,87,0.00,CLR,,0.00,WeatherDisplay:10.37,2013-07-22 03:40:00,
2013-07-21 23:45:00,76.5,72.3,29.86,ENE,69,0.0,0.0,87,0.00,CLR,,0.00,WeatherDisplay:10.37,2013-07-22 03:45:00,
2013-07-21 23:50:00,76.5,72.7,29.86,ENE,69,0.0,0.0,88,0.00,CLR,,0.00,WeatherDisplay:10.37,2013-07-22 03:50:00,
2013-07-21 23:55:00,76.4,72.6,29.86,ENE,70,0.0,2.0,88,0.00,CLR,,0.00,WeatherDisplay:10.37,2013-07-22 03:55:00,